Time;durP1;ratioP1;P1;durP2;ratioP2;P2;SDS_P1;SDS_P2;PMS_P1;PMS_P2;Temp;Humidity;BMP_temperature;BMP_pressure;BME280_temperature;BME280_humidity;BME280_pressure;Samples;Min_cycle;Max_cycle;Signal;HPM_P1;HPM_P2
2023/02/23 00:02:13;;;;;;;158.63;73.70;;;8.50;99.90;;;;;;5005225;28;35913;-82
2023/02/23 00:04:40;;;;;;;157.83;71.10;;;8.50;99.90;;;;;;4994973;28;37500;-81
2023/02/23 00:07:08;;;;;;;148.23;70.20;;;8.50;99.90;;;;;;5004245;28;36916;-82
2023/02/23 00:09:34;;;;;;;138.53;67.43;;;8.50;99.90;;;;;;5017373;28;38075;-82
2023/02/23 00:12:06;;;;;;;163.80;75.27;;;8.60;99.90;;;;;;5010860;28;39091;-81
2023/02/23 00:14:33;;;;;;;144.60;69.90;;;8.50;99.90;;;;;;4984013;28;46621;-82
2023/02/23 00:17:00;;;;;;;142.43;69.47;;;8.50;99.90;;;;;;4998306;28;38089;-82
2023/02/23 00:19:26;;;;;;;130.03;66.07;;;8.50;99.90;;;;;;5001764;28;38100;-82
2023/02/23 00:21:53;;;;;;;164.63;75.13;;;8.50;99.90;;;;;;5003859;28;36433;-82
2023/02/23 00:24:20;;;;;;;142.00;67.70;;;8.50;99.90;;;;;;5010594;28;38567;-82
2023/02/23 00:26:47;;;;;;;148.53;70.53;;;8.50;99.90;;;;;;4993342;28;36445;-82
2023/02/23 00:29:16;;;;;;;163.10;71.43;;;8.50;99.90;;;;;;4991446;28;38042;-81
2023/02/23 00:31:44;;;;;;;157.30;71.20;;;8.50;99.90;;;;;;4999739;28;37723;-81
2023/02/23 00:34:12;;;;;;;157.87;70.00;;;8.50;99.90;;;;;;5004074;28;37305;-82
2023/02/23 00:36:39;;;;;;;175.20;74.63;;;8.60;99.90;;;;;;5002931;28;35878;-82
2023/02/23 00:39:23;;;;;;;142.47;70.97;;;8.50;99.90;;;;;;4986438;28;39419;-82
2023/02/23 00:41:51;;;;;;;133.80;68.63;;;8.50;99.90;;;;;;4998024;28;37450;-82
2023/02/23 00:44:20;;;;;;;147.70;70.37;;;8.50;99.90;;;;;;5000269;28;37687;-82
2023/02/23 00:46:50;;;;;;;187.70;77.30;;;8.50;99.90;;;;;;5003603;28;37862;-82
2023/02/23 00:49:18;;;;;;;151.13;70.70;;;8.50;99.90;;;;;;5016087;28;38650;-81
2023/02/23 00:51:44;;;;;;;177.63;76.97;;;8.50;99.90;;;;;;4997734;28;37317;-81
2023/02/23 00:54:12;;;;;;;136.63;67.13;;;8.50;99.90;;;;;;5013790;28;39345;-82
2023/02/23 00:56:39;;;;;;;175.90;75.73;;;8.50;99.90;;;;;;5013434;28;37708;-82
2023/02/23 00:59:06;;;;;;;142.00;69.67;;;8.60;99.90;;;;;;5019475;28;38700;-82
2023/02/23 01:01:33;;;;;;;155.00;71.73;;;8.50;99.90;;;;;;5021650;28;38619;-82
2023/02/23 01:04:00;;;;;;;142.17;69.60;;;8.50;99.90;;;;;;5005722;28;39048;-82
2023/02/23 01:06:27;;;;;;;158.90;69.60;;;8.50;99.90;;;;;;4998855;28;47940;-82
2023/02/23 01:08:56;;;;;;;124.67;63.23;;;8.50;99.90;;;;;;5015960;28;39015;-82
2023/02/23 01:11:29;;;;;;;143.90;67.67;;;8.60;99.90;;;;;;5029329;28;38722;-82
2023/02/23 01:13:57;;;;;;;119.90;62.10;;;8.50;99.90;;;;;;5017205;28;38690;-82
2023/02/23 01:16:26;;;;;;;171.90;72.27;;;8.50;99.90;;;;;;5017255;28;38305;-82
2023/02/23 01:18:56;;;;;;;148.13;67.43;;;8.50;99.90;;;;;;5019215;28;38821;-82
2023/02/23 01:21:28;;;;;;;126.53;62.17;;;8.50;99.90;;;;;;4993938;28;37694;-82
2023/02/23 01:23:55;;;;;;;133.45;64.93;;;8.50;99.90;;;;;;5006133;28;37431;-82
2023/02/23 01:26:26;;;;;;;117.13;61.80;;;8.50;99.90;;;;;;5021001;28;37175;-82
2023/02/23 01:28:59;;;;;;;125.87;61.73;;;8.40;99.90;;;;;;5007040;28;37238;-82
2023/02/23 01:31:26;;;;;;;;;;;8.40;99.90;;;;;;5018056;28;38644;-82
2023/02/23 01:33:55;;;;;;;122.40;61.80;;;8.40;99.90;;;;;;5016800;28;37445;-81
2023/02/23 01:36:24;;;;;;;135.93;64.90;;;8.40;99.90;;;;;;5004588;28;36431;-82
2023/02/23 01:38:55;;;;;;;144.23;66.43;;;8.40;99.90;;;;;;5026229;28;39478;-82
2023/02/23 01:41:26;;;;;;;134.00;66.27;;;8.40;99.90;;;;;;5019107;28;38917;-82
2023/02/23 01:44:02;;;;;;;138.43;63.77;;;8.40;99.90;;;;;;5019330;28;38343;-82
2023/02/23 01:46:37;;;;;;;146.70;65.20;;;8.40;99.90;;;;;;5015144;28;48605;-82
2023/02/23 01:49:07;;;;;;;168.70;68.77;;;8.40;99.90;;;;;;5001763;28;37951;-82
2023/02/23 01:51:41;;;;;;;138.63;64.20;;;8.40;99.90;;;;;;5021512;28;39384;-81
2023/02/23 01:54:23;;;;;;;141.67;63.30;;;8.40;99.90;;;;;;5017288;28;39774;-82
2023/02/23 01:56:56;;;;;;;113.20;59.00;;;8.40;99.90;;;;;;5013164;28;38051;-82
2023/02/23 01:59:34;;;;;;;164.50;70.07;;;8.40;99.90;;;;;;5003304;28;38034;-82
2023/02/23 02:02:03;;;;;;;163.43;67.17;;;8.40;99.90;;;;;;5433092;23;39033;-81
2023/02/23 02:04:42;;;;;;;154.33;67.73;;;8.40;99.90;;;;;;4978069;28;48671;-81
2023/02/23 02:07:14;;;;;;;143.90;66.53;;;8.40;99.90;;;;;;4997190;28;38333;-81
2023/02/23 02:10:38;;;;;;;143.40;67.45;;;8.40;99.90;;;;;;4993205;28;37663;-81
2023/02/23 02:12:31;;;;;;;143.63;64.70;;;8.40;99.90;;;;;;4992290;28;48435;-81
2023/02/23 02:14:59;;;;;;;148.13;65.40;;;8.30;99.90;;;;;;4994510;28;39427;-81
2023/02/23 02:17:31;;;;;;;125.57;60.43;;;8.30;99.90;;;;;;4996792;28;36408;-81
2023/02/23 02:20:25;;;;;;;127.63;61.72;;;8.30;99.90;;;;;;4987452;28;37951;-81
2023/02/23 02:23:32;;;;;;;151.00;66.53;;;8.30;99.90;;;;;;4992848;28;48808;-81
2023/02/23 02:26:38;;;;;;;162.80;67.90;;;8.30;99.90;;;;;;4997766;28;48893;-81
2023/02/23 02:29:37;;;;;;;144.03;65.07;;;8.30;99.90;;;;;;5003910;28;48622;-81
2023/02/23 02:32:14;;;;;;;142.10;65.73;;;8.40;99.90;;;;;;4989502;28;38956;-81
2023/02/23 02:34:43;;;;;;;137.17;65.47;;;8.40;99.90;;;;;;4999118;28;37499;-81
2023/02/23 02:37:25;;;;;;;166.97;68.80;;;8.40;99.90;;;;;;5002232;28;37788;-81
2023/02/23 02:40:31;;;;;;;146.70;66.80;;;8.40;99.90;;;;;;4994693;28;38499;-81
2023/02/23 02:43:16;;;;;;;136.83;60.30;;;8.40;99.90;;;;;;4990469;28;49319;-81
2023/02/23 02:46:04;;;;;;;124.97;59.93;;;8.40;99.90;;;;;;4985090;28;47852;-81
2023/02/23 02:48:43;;;;;;;142.83;63.80;;;8.40;99.90;;;;;;4992575;28;47558;-81
2023/02/23 02:51:16;;;;;;;113.90;57.60;;;8.30;99.90;;;;;;4981794;28;37685;-81
2023/02/23 02:54:05;;;;;;;163.90;67.73;;;8.30;99.90;;;;;;4995609;28;37839;-81
2023/02/23 02:56:39;;;;;;;148.27;64.83;;;8.30;99.90;;;;;;4985096;28;47033;-81
2023/02/23 04:17:55;;;;;;;148.53;62.03;;;8.30;99.90;;;;;;4998450;28;50177;-82
2023/02/23 04:20:22;;;;;;;116.50;54.27;;;8.30;99.90;;;;;;5000003;28;37153;-82
2023/02/23 04:22:48;;;;;;;145.10;62.70;;;8.30;99.90;;;;;;5002161;28;36088;-81
2023/02/23 04:25:16;;;;;;;155.30;63.77;;;8.30;99.90;;;;;;5001267;28;37699;-81
2023/02/23 04:27:42;;;;;;;145.53;61.53;;;8.30;99.90;;;;;;5001947;28;38501;-81
2023/02/23 04:30:10;;;;;;;121.60;55.70;;;8.30;99.90;;;;;;5001369;28;37173;-81
2023/02/23 04:32:36;;;;;;;124.13;57.03;;;8.30;99.90;;;;;;5004422;28;36582;-82
2023/02/23 04:35:03;;;;;;;123.67;57.63;;;8.20;99.90;;;;;;5011359;28;39123;-81
2023/02/23 04:37:29;;;;;;;126.70;58.07;;;8.20;99.90;;;;;;4996853;28;46979;-81
2023/02/23 04:39:55;;;;;;;121.03;56.93;;;8.30;99.90;;;;;;5004740;28;37305;-81
2023/02/23 04:42:22;;;;;;;138.47;60.27;;;8.30;99.90;;;;;;4992858;28;37084;-81
2023/02/23 04:44:48;;;;;;;165.50;62.13;;;8.20;99.90;;;;;;5005028;28;37738;-82
2023/02/23 04:47:14;;;;;;;130.10;57.27;;;8.30;99.90;;;;;;5003919;28;38740;-81
2023/02/23 04:49:44;;;;;;;168.07;64.20;;;8.20;99.90;;;;;;5002555;28;36684;-81
2023/02/23 04:52:10;;;;;;;138.47;58.13;;;8.20;99.90;;;;;;5005188;28;36195;-83
2023/02/23 04:54:38;;;;;;;174.00;65.27;;;8.20;99.90;;;;;;5008584;28;37933;-81
2023/02/23 04:57:04;;;;;;;148.23;59.83;;;8.20;99.90;;;;;;4991885;28;38148;-81
2023/02/23 04:59:31;;;;;;;174.00;64.03;;;8.20;99.90;;;;;;5010306;28;38606;-81
2023/02/23 05:01:57;;;;;;;164.80;61.47;;;8.20;99.90;;;;;;4999406;28;38582;-81
2023/02/23 05:04:23;;;;;;;181.07;64.47;;;8.10;99.90;;;;;;5001291;28;38110;-82
2023/02/23 05:06:49;;;;;;;138.93;59.43;;;8.20;99.90;;;;;;4993225;28;38189;-81
2023/02/23 05:09:16;;;;;;;148.57;59.53;;;8.10;99.90;;;;;;4999062;28;38014;-81
2023/02/23 05:11:42;;;;;;;208.97;66.70;;;8.20;99.90;;;;;;4999709;28;38056;-81
2023/02/23 05:14:09;;;;;;;199.70;64.07;;;8.20;99.90;;;;;;5001646;28;38487;-81
2023/02/23 05:16:35;;;;;;;174.20;62.73;;;8.10;99.90;;;;;;4998618;28;38821;-81
2023/02/23 05:19:01;;;;;;;136.33;56.23;;;8.10;99.90;;;;;;4993375;28;37703;-81
2023/02/23 05:21:27;;;;;;;164.73;60.97;;;8.20;99.90;;;;;;5003596;28;47177;-82
2023/02/23 05:23:53;;;;;;;154.17;60.60;;;8.20;99.90;;;;;;4996278;28;38150;-81
2023/02/23 05:26:19;;;;;;;152.63;59.37;;;8.20;99.90;;;;;;4988075;28;39833;-81
2023/02/23 05:28:45;;;;;;;201.83;67.80;;;8.20;99.90;;;;;;4997850;28;37273;-81
2023/02/23 05:31:12;;;;;;;133.93;56.70;;;8.20;99.90;;;;;;4989086;28;37296;-81
2023/02/23 05:33:41;;;;;;;204.27;69.67;;;8.20;99.90;;;;;;5001607;28;38755;-81
2023/02/23 05:36:09;;;;;;;148.13;57.87;;;8.30;99.90;;;;;;4988998;28;38381;-81
2023/02/23 05:38:36;;;;;;;146.20;61.60;;;8.30;99.90;;;;;;4992572;28;38520;-81
2023/02/23 05:41:09;;;;;;;159.57;63.30;;;8.30;99.90;;;;;;4989621;28;36931;-80
2023/02/23 05:43:36;;;;;;;140.50;58.53;;;8.30;99.90;;;;;;5015674;28;39164;-81
2023/02/23 05:46:10;;;;;;;121.43;54.17;;;8.30;99.90;;;;;;5009973;28;38180;-80
2023/02/23 05:48:36;;;;;;;154.27;59.93;;;8.30;99.90;;;;;;5000568;28;38077;-81
2023/02/23 05:51:04;;;;;;;184.27;64.80;;;8.20;99.90;;;;;;4999546;28;37598;-81
2023/02/23 05:53:31;;;;;;;157.40;60.90;;;8.20;99.90;;;;;;4985619;28;38174;-82
2023/02/23 05:55:57;;;;;;;170.13;60.03;;;8.30;99.90;;;;;;4988554;28;37784;-81
2023/02/23 05:58:24;;;;;;;156.57;58.30;;;8.30;99.90;;;;;;4993509;28;37256;-81
2023/02/23 06:00:51;;;;;;;130.60;55.80;;;8.30;99.90;;;;;;4996252;28;36900;-81
2023/02/23 06:03:17;;;;;;;151.60;60.53;;;8.30;99.90;;;;;;4991530;28;37603;-81
2023/02/23 06:05:54;;;;;;;149.07;58.47;;;8.30;99.90;;;;;;4995676;28;38534;-81
2023/02/23 06:08:20;;;;;;;157.97;59.27;;;8.30;99.90;;;;;;4994676;28;37585;-80
2023/02/23 06:10:46;;;;;;;158.17;59.70;;;8.30;99.90;;;;;;4979491;28;36727;-81
2023/02/23 06:13:13;;;;;;;176.40;58.50;;;8.30;99.90;;;;;;4984650;28;37659;-81
2023/02/23 06:15:40;;;;;;;176.30;61.40;;;8.30;99.90;;;;;;4988037;28;38465;-81
2023/02/23 06:18:07;;;;;;;171.70;60.83;;;8.30;99.90;;;;;;4984364;28;38572;-80
2023/02/23 06:20:34;;;;;;;157.13;57.47;;;8.20;99.90;;;;;;4988391;28;36223;-81
2023/02/23 06:23:00;;;;;;;176.77;57.90;;;8.20;99.90;;;;;;4991810;28;37280;-81
2023/02/23 06:25:28;;;;;;;170.70;57.60;;;8.20;99.90;;;;;;5005809;28;37961;-83
2023/02/23 06:27:54;;;;;;;170.63;58.83;;;8.10;99.90;;;;;;5010636;28;37297;-83
2023/02/23 06:30:20;;;;;;;133.57;51.07;;;8.00;99.90;;;;;;4997714;28;38903;-82
2023/02/23 06:32:46;;;;;;;149.47;53.17;;;8.00;99.90;;;;;;4999965;28;38542;-82
2023/02/23 06:37:52;;;;;;;167.50;55.63;;;8.00;99.90;;;;;;4674473;23;15221058;-82
2023/02/23 06:41:09;;;;;;;186.30;59.07;;;7.90;99.90;;;;;;4997056;28;39346;-81
2023/02/23 06:43:39;;;;;;;171.80;55.57;;;7.90;99.90;;;;;;4971173;28;48026;-82
2023/02/23 06:46:08;;;;;;;175.43;56.13;;;7.90;99.90;;;;;;5020502;28;37471;-82
2023/02/23 06:48:41;;;;;;;175.30;55.57;;;7.90;99.90;;;;;;5017198;28;39056;-82
2023/02/23 06:51:13;;;;;;;123.93;47.67;;;8.10;99.90;;;;;;4964062;28;39773;-82
2023/02/23 06:56:18;;;;;;;124.37;49.00;;;8.10;99.90;;;;;;5455532;23;20065;-80
2023/02/23 06:58:46;;;;;;;166.90;54.33;;;8.10;99.90;;;;;;5011047;28;39051;-83
2023/02/23 07:01:20;;;;;;;142.83;51.13;;;8.20;99.90;;;;;;5018019;28;38605;-81
2023/02/23 07:03:50;;;;;;;176.03;56.00;;;8.20;99.90;;;;;;4998690;28;38078;-82
2023/02/23 07:06:29;;;;;;;177.98;57.97;;;8.20;99.90;;;;;;5008057;28;38815;-81
2023/02/23 07:08:59;;;;;;;150.70;51.27;;;8.20;99.90;;;;;;4994746;28;40863;-81
2023/02/23 07:11:25;;;;;;;147.80;49.17;;;8.20;99.90;;;;;;5011350;28;39847;-82
2023/02/23 07:13:53;;;;;;;138.80;51.67;;;8.20;99.90;;;;;;5021982;28;38776;-81
2023/02/23 07:16:23;;;;;;;138.47;51.93;;;8.30;99.90;;;;;;5000578;28;36629;-81
2023/02/23 07:19:31;;;;;;;134.03;50.57;;;8.30;99.90;;;;;;4989198;28;39254;-81
2023/02/23 07:22:15;;;;;;;193.50;56.77;;;8.30;99.90;;;;;;4987973;28;48916;-82
2023/02/23 07:24:45;;;;;;;143.53;50.53;;;8.30;99.90;;;;;;5046783;23;47588;-81
2023/02/23 07:27:11;;;;;;;128.03;48.57;;;8.40;99.90;;;;;;5002842;28;37948;-82
2023/02/23 07:29:43;;;;;;;123.80;50.10;;;8.40;99.90;;;;;;5007587;28;40323;-85
2023/02/23 07:32:10;;;;;;;;;;;8.40;99.90;;;;;;5013795;28;38954;-84
2023/02/23 07:34:36;;;;;;;136.53;50.43;;;8.50;99.90;;;;;;4995729;28;37238;-83
2023/02/23 07:37:04;;;;;;;156.67;50.90;;;8.40;99.90;;;;;;5001721;28;35912;-84
2023/02/23 07:39:31;;;;;;;142.60;51.50;;;8.50;99.90;;;;;;5002257;28;37602;-83
2023/02/23 07:41:57;;;;;;;135.40;50.73;;;8.50;99.90;;;;;;5005326;28;38898;-83
2023/02/23 07:44:23;;;;;;;155.73;53.57;;;8.60;99.90;;;;;;4998336;28;38401;-84
2023/02/23 07:46:51;;;;;;;153.80;52.90;;;8.60;99.90;;;;;;5011887;28;37992;-84
2023/02/23 07:49:17;;;;;;;123.10;50.13;;;8.60;99.90;;;;;;5000498;28;38840;-83
2023/02/23 07:54:20;;;;;;;128.93;50.57;;;8.60;99.90;;;;;;5410105;23;21792;-81
2023/02/23 07:56:46;;;;;;;111.67;47.20;;;8.60;99.90;;;;;;4990225;28;38415;-80
2023/02/23 07:59:13;;;;;;;127.23;47.93;;;8.60;99.90;;;;;;4973043;28;38005;-80
2023/02/23 08:01:39;;;;;;;111.93;46.43;;;8.60;99.90;;;;;;4984738;28;37484;-80
2023/02/23 08:04:05;;;;;;;109.23;43.90;;;8.50;99.90;;;;;;4966913;28;38017;-79
2023/02/23 08:06:31;;;;;;;109.20;43.47;;;8.50;99.90;;;;;;4988042;28;37260;-79
2023/02/23 08:08:59;;;;;;;110.40;43.83;;;8.60;99.90;;;;;;4979322;28;37740;-79
2023/02/23 08:11:27;;;;;;;94.10;40.23;;;8.60;99.90;;;;;;4979877;28;38481;-81
2023/02/23 08:13:59;;;;;;;108.17;41.13;;;8.60;99.90;;;;;;4974621;28;37166;-81
2023/02/23 08:16:29;;;;;;;101.70;42.50;;;8.70;99.90;;;;;;4985585;28;37803;-81
2023/02/23 08:18:57;;;;;;;96.63;40.07;;;8.70;99.90;;;;;;4980972;28;38949;-81
2023/02/23 08:21:24;;;;;;;96.70;39.27;;;8.70;99.90;;;;;;4985324;28;38739;-79
2023/02/23 08:23:50;;;;;;;84.47;38.13;;;8.80;99.90;;;;;;4977884;28;40126;-79
2023/02/23 08:26:16;;;;;;;81.07;37.97;;;8.90;99.90;;;;;;4985748;28;37268;-78
2023/02/23 08:28:44;;;;;;;82.20;36.40;;;9.00;99.90;;;;;;4973362;28;38441;-79
2023/02/23 08:31:12;;;;;;;87.47;38.10;;;9.00;99.90;;;;;;4973544;28;38228;-79
2023/02/23 08:33:39;;;;;;;83.90;36.33;;;9.10;99.90;;;;;;4985353;28;38385;-80
2023/02/23 08:36:07;;;;;;;71.70;33.70;;;9.10;99.90;;;;;;4971682;28;36278;-79
2023/02/23 08:38:35;;;;;;;71.07;34.07;;;9.00;99.90;;;;;;4971681;28;37568;-79
2023/02/23 08:41:05;;;;;;;62.80;29.90;;;9.10;99.90;;;;;;4967117;28;37500;-80
2023/02/23 08:43:31;;;;;;;64.30;30.10;;;9.10;99.90;;;;;;4993178;28;48486;-82
2023/02/23 08:45:57;;;;;;;60.93;31.53;;;9.10;99.90;;;;;;4974243;28;35696;-78
2023/02/23 08:48:24;;;;;;;61.50;29.97;;;9.20;99.90;;;;;;4992740;28;38980;-78
2023/02/23 08:50:54;;;;;;;56.40;29.50;;;9.30;99.90;;;;;;4987356;28;38245;-79
2023/02/23 08:53:21;;;;;;;52.90;28.60;;;9.30;99.90;;;;;;4972852;28;37249;-78
2023/02/23 08:55:47;;;;;;;54.63;28.30;;;9.40;99.90;;;;;;4976326;28;36716;-79
2023/02/23 08:58:13;;;;;;;50.43;27.27;;;9.50;99.90;;;;;;4988867;28;37299;-78
2023/02/23 09:00:40;;;;;;;49.20;26.20;;;9.60;99.90;;;;;;5004009;28;38420;-78
2023/02/23 09:03:06;;;;;;;46.67;25.90;;;9.50;99.90;;;;;;4990664;28;38064;-80
2023/02/23 09:05:35;;;;;;;45.60;23.67;;;9.50;99.90;;;;;;4989889;28;37566;-80
2023/02/23 09:08:01;;;;;;;46.23;24.03;;;9.50;99.90;;;;;;5006254;28;39105;-78
2023/02/23 09:10:28;;;;;;;40.40;23.17;;;9.50;99.90;;;;;;4998719;28;38586;-82
2023/02/23 09:12:54;;;;;;;41.33;21.60;;;9.50;99.90;;;;;;5004025;28;37279;-82
2023/02/23 09:15:20;;;;;;;35.70;19.50;;;9.50;99.90;;;;;;5002109;28;37712;-82
2023/02/23 09:17:47;;;;;;;36.77;18.90;;;9.40;99.90;;;;;;5005148;28;39770;-80
2023/02/23 09:20:15;;;;;;;32.93;18.83;;;9.40;99.90;;;;;;4981569;28;37436;-78
2023/02/23 09:22:48;;;;;;;33.03;18.27;;;9.50;99.90;;;;;;4988235;28;37073;-80
2023/02/23 09:25:21;;;;;;;31.60;16.83;;;9.50;99.90;;;;;;4986566;28;37377;-79
2023/02/23 09:27:52;;;;;;;26.60;16.93;;;9.60;99.90;;;;;;4993168;28;37643;-79
2023/02/23 09:30:19;;;;;;;32.13;17.43;;;9.60;99.90;;;;;;4992514;28;37191;-79
2023/02/23 09:32:47;;;;;;;24.67;14.90;;;9.60;99.90;;;;;;4996406;28;37823;-79
2023/02/23 09:35:16;;;;;;;26.47;15.67;;;9.60;99.90;;;;;;4981088;28;37214;-79
2023/02/23 09:37:51;;;;;;;24.03;13.37;;;9.60;99.90;;;;;;4993435;28;39798;-79
2023/02/23 09:40:26;;;;;;;23.57;13.87;;;9.60;99.90;;;;;;4988556;28;37377;-79
2023/02/23 09:43:15;;;;;;;21.53;13.80;;;9.60;99.90;;;;;;4990067;28;38331;-82
2023/02/23 09:45:51;;;;;;;23.70;14.30;;;9.50;99.90;;;;;;4992190;28;47230;-79
2023/02/23 09:48:22;;;;;;;23.33;13.33;;;9.50;99.90;;;;;;5000118;28;37843;-79
2023/02/23 09:50:54;;;;;;;19.33;12.00;;;9.50;99.90;;;;;;5000800;28;38459;-79
2023/02/23 09:53:39;;;;;;;20.67;13.23;;;9.60;99.90;;;;;;5007525;28;38421;-79
2023/02/23 09:56:31;;;;;;;21.03;13.10;;;9.80;99.90;;;;;;4977034;28;38116;-79
2023/02/23 09:58:59;;;;;;;23.50;13.43;;;9.90;99.90;;;;;;4957705;28;37648;-80
2023/02/23 10:01:47;;;;;;;23.43;12.97;;;10.10;99.90;;;;;;4974997;28;39232;-79
2023/02/23 10:04:30;;;;;;;28.53;13.30;;;10.10;99.90;;;;;;4957070;28;37073;-79
2023/02/23 10:07:14;;;;;;;22.48;12.73;;;10.10;99.90;;;;;;4971298;28;37267;-79
2023/02/23 10:09:46;;;;;;;22.07;12.70;;;10.10;99.90;;;;;;4979157;28;48857;-79
2023/02/23 10:12:41;;;;;;;18.20;11.20;;;10.10;99.90;;;;;;4972449;28;38706;-79
2023/02/23 10:15:34;;;;;;;20.60;12.70;;;10.00;99.90;;;;;;4950874;28;36738;-79
2023/02/23 10:18:18;;;;;;;23.97;12.70;;;10.10;99.90;;;;;;4970567;28;37197;-80
2023/02/23 10:21:03;;;;;;;17.80;11.43;;;10.20;99.90;;;;;;4994486;28;48486;-78
2023/02/23 10:23:45;;;;;;;17.50;11.70;;;10.20;99.90;;;;;;4987198;28;49187;-80
2023/02/23 10:26:17;;;;;;;21.02;12.30;;;10.20;99.90;;;;;;4977443;28;39267;-79
2023/02/23 10:28:44;;;;;;;17.80;11.52;;;10.40;99.90;;;;;;4969442;28;37168;-79
2023/02/23 10:31:25;;;;;;;20.40;12.50;;;10.50;99.90;;;;;;4973352;28;40070;-79
2023/02/23 10:33:54;;;;;;;15.87;11.60;;;10.80;99.90;;;;;;4969835;28;38637;-79
2023/02/23 10:36:51;;;;;;;23.20;13.43;;;10.90;99.90;;;;;;4969125;28;38740;-79
2023/02/23 10:39:18;;;;;;;20.08;12.77;;;11.00;99.90;;;;;;4949001;28;37576;-79
2023/02/23 10:41:44;;;;;;;17.00;12.90;;;11.00;99.90;;;;;;4982990;28;39584;-79
2023/02/23 10:44:20;;;;;;;18.50;12.63;;;11.10;99.90;;;;;;4959284;28;37554;-79
2023/02/23 10:46:53;;;;;;;20.20;13.60;;;11.10;99.90;;;;;;4957529;28;36901;-80
2023/02/23 10:49:23;;;;;;;20.67;13.33;;;10.90;99.90;;;;;;4976242;28;37125;-80
2023/02/23 10:51:51;;;;;;;23.97;13.43;;;10.80;99.90;;;;;;4975624;28;39009;-79
2023/02/23 10:54:46;;;;;;;22.47;13.10;;;10.60;99.90;;;;;;4961612;28;37355;-80
2023/02/23 10:57:31;;;;;;;21.73;13.17;;;10.60;99.90;;;;;;4954264;28;38071;-80
2023/02/23 11:00:12;;;;;;;21.70;13.17;;;10.70;99.90;;;;;;4969736;28;38894;-80
2023/02/23 11:02:40;;;;;;;18.17;12.80;;;10.70;99.90;;;;;;4969636;28;47072;-80
2023/02/23 11:05:24;;;;;;;18.57;13.23;;;10.50;99.90;;;;;;4966302;28;39166;-79
2023/02/23 11:08:07;;;;;;;21.93;12.53;;;10.50;99.90;;;;;;4960380;28;37446;-80
2023/02/23 11:10:33;;;;;;;20.33;13.10;;;10.50;99.90;;;;;;4955134;28;47867;-80
2023/02/23 11:13:00;;;;;;;19.33;12.43;;;10.50;99.90;;;;;;4984944;28;39025;-80
2023/02/23 11:15:35;;;;;;;20.10;13.13;;;10.50;99.90;;;;;;4980296;28;38095;-81
2023/02/23 11:18:05;;;;;;;20.50;12.97;;;10.60;99.90;;;;;;4960051;28;37652;-80
2023/02/23 11:20:39;;;;;;;17.70;12.63;;;10.70;99.90;;;;;;4962110;28;48003;-80
2023/02/23 11:23:16;;;;;;;16.70;11.77;;;10.80;99.90;;;;;;4979832;28;38486;-80
2023/02/23 11:25:44;;;;;;;18.87;12.20;;;10.90;99.90;;;;;;4989648;28;39590;-81
2023/02/23 11:28:21;;;;;;;19.67;13.27;;;10.90;99.90;;;;;;4971730;28;36887;-80
2023/02/23 11:30:48;;;;;;;18.37;12.07;;;10.80;99.90;;;;;;4963877;28;36774;-81
2023/02/23 11:33:19;;;;;;;17.43;12.00;;;10.70;99.90;;;;;;4969597;28;38628;-81
2023/02/23 11:35:45;;;;;;;21.50;12.70;;;10.50;99.90;;;;;;4984320;28;39397;-81
2023/02/23 11:38:34;;;;;;;23.43;12.87;;;10.40;99.90;;;;;;4964109;28;38556;-82
2023/02/23 11:41:15;;;;;;;22.93;12.50;;;10.30;99.90;;;;;;4990045;28;36530;-82
2023/02/23 11:43:48;;;;;;;21.60;12.50;;;10.20;99.90;;;;;;4986029;28;48288;-83
2023/02/23 11:46:14;;;;;;;21.63;12.98;;;10.10;99.90;;;;;;4979652;28;39013;-81
2023/02/23 11:48:52;;;;;;;24.33;13.77;;;10.00;99.90;;;;;;4988643;28;39441;-82
2023/02/23 11:51:30;;;;;;;21.40;13.50;;;9.90;99.90;;;;;;4966781;28;36386;-82
2023/02/23 11:53:57;;;;;;;20.43;13.53;;;9.90;99.90;;;;;;4971710;28;37626;-82
2023/02/23 11:56:24;;;;;;;26.83;13.60;;;9.80;99.90;;;;;;4965578;28;37514;-82
2023/02/23 11:59:07;;;;;;;25.77;13.83;;;9.80;99.90;;;;;;4984632;28;38602;-82
2023/02/23 12:01:43;;;;;;;25.58;13.68;;;9.90;99.90;;;;;;4982624;28;48024;-82
2023/02/23 12:04:29;;;;;;;21.63;12.73;;;10.00;99.90;;;;;;4981555;28;38317;-82
2023/02/23 12:07:30;;;;;;;20.97;12.33;;;10.20;99.90;;;;;;4987414;28;38917;-81
2023/02/23 12:10:16;;;;;;;19.30;12.27;;;10.30;99.90;;;;;;4974605;28;47553;-82
2023/02/23 12:13:19;;;;;;;23.40;12.40;;;10.40;99.90;;;;;;4968145;28;47612;-81
2023/02/23 12:15:55;;;;;;;19.53;11.83;;;10.50;99.90;;;;;;4969149;28;46665;-81
2023/02/23 12:18:35;;;;;;;24.93;12.60;;;10.60;99.90;;;;;;4971527;28;37714;-81
2023/02/23 12:21:30;;;;;;;21.03;12.60;;;10.70;99.90;;;;;;4967868;28;36924;-77
2023/02/23 12:24:20;;;;;;;21.37;12.40;;;10.80;99.90;;;;;;4963592;28;36325;-81
2023/02/23 12:26:57;;;;;;;16.83;10.43;;;10.90;99.90;;;;;;4956390;28;46778;-81
2023/02/23 12:29:59;;;;;;;16.83;9.47;;;10.80;99.90;;;;;;4968963;28;38426;-81
2023/02/23 12:32:52;;;;;;;23.47;13.03;;;10.70;99.90;;;;;;4991511;28;39441;-81
2023/02/23 12:35:56;;;;;;;23.73;12.73;;;10.70;99.90;;;;;;4977462;28;35777;-81
2023/02/23 12:38:34;;;;;;;21.67;12.20;;;10.70;99.90;;;;;;4978630;28;38307;-81
2023/02/23 12:41:35;;;;;;;20.73;11.17;;;10.60;99.90;;;;;;4974390;28;39228;-83
2023/02/23 12:44:36;;;;;;;20.23;10.60;;;10.60;99.90;;;;;;4953522;28;49441;-78
2023/02/23 12:47:26;;;;;;;16.93;9.57;;;10.60;99.90;;;;;;4975702;28;36505;-81
2023/02/23 12:50:06;;;;;;;18.70;8.10;;;10.70;99.90;;;;;;4976957;28;37387;-82
2023/02/23 12:52:37;;;;;;;9.57;5.07;;;10.70;99.90;;;;;;4983901;28;49163;-81
2023/02/23 12:55:10;;;;;;;8.50;4.30;;;10.60;99.90;;;;;;4990997;28;38533;-81
2023/02/23 12:57:53;;;;;;;5.10;3.43;;;10.60;99.90;;;;;;5325519;23;48326;-82
2023/02/23 13:00:32;;;;;;;10.63;6.73;;;10.60;99.90;;;;;;4999446;28;37914;-80
2023/02/23 13:03:20;;;;;;;15.70;7.87;;;10.60;99.90;;;;;;5009470;28;37450;-82
2023/02/23 13:06:35;;;;;;;25.40;13.13;;;10.50;99.90;;;;;;4992058;28;47318;-82
2023/02/23 13:09:18;;;;;;;25.97;14.73;;;10.60;99.90;;;;;;4927592;28;47314;-83
2023/02/23 13:12:05;;;;;;;26.20;15.10;;;10.60;99.90;;;;;;5006864;28;46759;-82
2023/02/23 13:15:01;;;;;;;30.97;17.70;;;10.70;99.90;;;;;;5014179;28;48122;-82
2023/02/23 13:17:42;;;;;;;40.13;20.57;;;10.60;99.90;;;;;;5008609;28;36797;-82
2023/02/23 13:20:29;;;;;;;36.23;19.83;;;10.70;99.90;;;;;;5012344;28;38221;-81
2023/02/23 13:23:01;;;;;;;35.07;20.33;;;10.70;99.90;;;;;;5031438;28;37460;-82
2023/02/23 13:25:49;;;;;;;35.17;20.67;;;10.70;99.90;;;;;;5013748;28;46823;-81
2023/02/23 13:28:27;;;;;;;35.60;19.73;;;10.70;99.90;;;;;;5015031;28;39546;-83
2023/02/23 13:30:53;;;;;;;35.37;20.40;;;10.80;99.90;;;;;;5020889;28;36251;-83
2023/02/23 13:33:33;;;;;;;37.93;21.40;;;10.80;99.90;;;;;;4998690;28;38676;-83
2023/02/23 13:36:03;;;;;;;32.53;19.67;;;10.90;99.90;;;;;;4995873;28;37818;-82
2023/02/23 13:38:52;;;;;;;38.75;21.40;;;10.90;99.90;;;;;;5012814;28;47572;-82
2023/02/23 13:41:44;;;;;;;41.40;20.77;;;10.90;99.90;;;;;;5012529;28;38607;-82
2023/02/23 13:44:23;;;;;;;40.28;20.67;;;10.90;99.90;;;;;;5013518;28;39064;-82
2023/02/23 13:47:15;;;;;;;39.50;21.87;;;11.00;99.90;;;;;;4988616;28;37966;-82
2023/02/23 13:50:05;;;;;;;38.42;22.77;;;11.00;99.90;;;;;;5000949;28;48162;-83
2023/02/23 13:52:41;;;;;;;36.80;21.00;;;11.00;99.90;;;;;;5013172;28;50211;-83
2023/02/23 13:55:25;;;;;;;31.97;18.90;;;11.00;99.90;;;;;;5014098;28;40367;-82
2023/02/23 13:57:53;;;;;;;34.35;18.98;;;11.10;99.90;;;;;;5014410;28;38992;-83
2023/02/23 14:00:21;;;;;;;31.30;18.27;;;11.20;99.90;;;;;;5010349;28;39652;-83
2023/02/23 14:02:49;;;;;;;28.67;16.20;;;11.30;99.90;;;;;;4997491;28;36412;-83
2023/02/23 14:05:19;;;;;;;29.33;15.27;;;11.10;99.90;;;;;;4999924;28;38917;-83
2023/02/23 14:07:52;;;;;;;24.42;13.68;;;11.10;99.90;;;;;;5013799;28;39995;-83
2023/02/23 14:10:38;;;;;;;26.05;13.70;;;11.00;99.90;;;;;;4995685;28;38567;-82
2023/02/23 14:13:14;;;;;;;27.70;14.35;;;11.10;99.90;;;;;;5011150;28;38617;-80
2023/02/23 14:21:18;;;;;;;21.73;13.23;;;10.90;99.90;;;;;;5002913;26;20042;-84
2023/02/23 14:27:24;;;;;;;21.10;11.20;;;10.90;99.90;;;;;;5562724;23;20051;-80
2023/02/23 14:30:09;;;;;;;19.65;11.27;;;10.80;99.90;;;;;;5017341;28;40092;-83
2023/02/23 14:32:41;;;;;;;19.20;10.67;;;10.80;99.90;;;;;;5009768;28;48976;-83
2023/02/23 14:35:32;;;;;;;20.52;10.80;;;10.80;99.90;;;;;;5094988;23;37841;-81
2023/02/23 14:43:37;;;;;;;19.17;10.47;;;10.90;99.90;;;;;;5286108;23;20041;-82